Time;durP1;ratioP1;P1;durP2;ratioP2;P2;SDS_P1;SDS_P2;PMS_P1;PMS_P2;Temp;Humidity;BMP_temperature;BMP_pressure;BME280_temperature;BME280_humidity;BME280_pressure;Samples;Min_cycle;Max_cycle;Signal;HPM_P1;HPM_P2
2022/07/03 00:02:22;;;;;;;15.65;11.43;;;;;;;21.58;59.96;100302.47;5041770;28;20081;-71
2022/07/03 00:04:49;;;;;;;15.15;9.27;;;;;;;21.37;59.85;100265.69;5037707;28;20475;-70
2022/07/03 00:07:16;;;;;;;11.90;8.90;;;;;;;21.66;59.69;100313.66;5047487;28;20152;-68
2022/07/03 00:09:43;;;;;;;10.20;8.00;;;;;;;21.71;60.05;100327.63;5045395;28;20149;-70
2022/07/03 00:12:11;;;;;;;13.20;10.18;;;;;;;21.64;59.90;100310.38;5033271;28;20088;-71
2022/07/03 00:14:38;;;;;;;12.23;8.70;;;;;;;21.68;59.93;100310.47;5033213;28;20050;-70
2022/07/03 00:17:05;;;;;;;12.30;9.32;;;;;;;21.65;59.90;100299.81;5043501;28;20072;-71
2022/07/03 00:19:32;;;;;;;12.95;10.93;;;;;;;21.53;59.80;100286.47;5036075;28;20132;-71
2022/07/03 00:22:04;;;;;;;13.15;8.77;;;;;;;21.70;60.01;100302.38;5038923;28;20044;-71
2022/07/03 00:24:40;;;;;;;12.38;9.40;;;;;;;21.65;60.10;100303.47;5034676;28;20137;-71
2022/07/03 00:27:09;;;;;;;12.10;8.45;;;;;;;21.51;60.09;100283.19;5032008;28;20096;-69
2022/07/03 00:29:44;;;;;;;11.35;8.38;;;;;;;21.55;59.95;100277.59;5040361;28;20140;-69
2022/07/03 00:32:14;;;;;;;14.32;9.07;;;;;;;21.35;60.16;100257.53;5036355;28;20136;-69
2022/07/03 00:34:44;;;;;;;13.73;9.80;;;;;;;21.15;60.16;100224.47;5044338;28;20056;-70
2022/07/03 00:37:11;;;;;;;15.80;9.80;;;;;;;21.43;60.25;100276.44;5034365;28;20053;-69
2022/07/03 00:39:42;;;;;;;10.98;9.88;;;;;;;21.45;60.31;100268.41;5044655;28;20084;-69
2022/07/03 00:42:11;;;;;;;11.95;9.13;;;;;;;21.36;60.53;100253.50;5038078;28;20470;-69
2022/07/03 00:44:48;;;;;;;11.45;8.82;;;;;;;21.42;60.25;100266.28;5032200;28;20200;-70
2022/07/03 00:47:18;;;;;;;14.73;11.45;;;;;;;21.20;60.58;100222.19;5032494;28;20479;-70
2022/07/03 00:49:48;;;;;;;;;;;;;;;21.20;60.48;100249.78;5041693;28;20053;-72
2022/07/03 00:52:17;;;;;;;13.23;9.07;;;;;;;21.28;60.56;100234.59;5048313;28;20019;-72
2022/07/03 00:54:51;;;;;;;10.82;9.65;;;;;;;21.33;60.31;100245.69;5047636;28;20091;-72
2022/07/03 00:57:19;;;;;;;11.32;9.48;;;;;;;21.28;60.50;100237.44;5040918;28;20148;-70
2022/07/03 00:59:46;;;;;;;19.95;9.32;;;;;;;21.33;60.49;100251.34;5041656;28;20087;-71
2022/07/03 01:02:40;;;;;;;12.98;10.00;;;;;;;21.36;60.64;100247.00;5036503;28;20049;-71
2022/07/03 01:05:25;;;;;;;14.52;9.70;;;;;;;21.38;60.38;100251.16;5038456;28;20100;-73
2022/07/03 01:08:19;;;;;;;15.45;8.95;;;;;;;21.38;60.72;100236.94;5044222;28;20088;-72
2022/07/03 01:11:13;;;;;;;11.70;8.95;;;;;;;21.40;60.59;100231.75;5034173;28;20137;-73
2022/07/03 01:13:51;;;;;;;11.60;9.20;;;;;;;21.41;60.49;100239.06;5040500;28;20073;-71
2022/07/03 01:16:24;;;;;;;12.73;9.13;;;;;;;21.44;60.58;100243.22;5039379;28;20087;-72
2022/07/03 01:19:04;;;;;;;12.10;9.32;;;;;;;21.35;60.73;100217.78;5031494;28;20084;-71
2022/07/03 01:21:50;;;;;;;10.35;9.25;;;;;;;21.55;60.40;100246.34;5039125;28;20053;-72
2022/07/03 01:24:32;;;;;;;9.88;8.88;;;;;;;21.56;60.62;100239.47;5048186;28;20168;-73
2022/07/03 01:27:06;;;;;;;13.88;9.30;;;;;;;21.58;60.36;100239.94;5048920;28;20108;-73
2022/07/03 01:30:01;;;;;;;13.80;9.43;;;;;;;21.49;60.73;100229.53;5042226;28;20147;-72
2022/07/03 01:32:33;;;;;;;15.32;8.63;;;;;;;21.64;60.31;100235.63;5039842;28;20095;-72
2022/07/03 01:35:02;;;;;;;16.42;9.00;;;;;;;21.57;60.61;100221.22;5043593;28;20129;-73
2022/07/03 01:37:33;;;;;;;23.08;11.02;;;;;;;21.47;60.29;100197.00;5046899;28;20048;-71
2022/07/03 01:40:03;;;;;;;12.05;9.30;;;;;;;21.56;60.52;100206.19;5046724;28;20052;-72
2022/07/03 01:42:34;;;;;;;11.18;8.95;;;;;;;21.66;60.13;100228.41;5036616;28;20112;-72
2022/07/03 01:45:02;;;;;;;15.70;8.63;;;;;;;21.66;60.32;100221.91;5044154;28;20132;-72
2022/07/03 01:47:31;;;;;;;13.38;9.57;;;;;;;21.64;60.35;100224.25;5053742;28;20136;-72
2022/07/03 01:50:00;;;;;;;20.88;9.57;;;;;;;21.65;60.29;100221.06;5048548;28;20080;-70
2022/07/03 01:52:31;;;;;;;15.83;9.57;;;;;;;21.53;59.97;100201.25;5034359;28;20507;-68
2022/07/03 01:55:15;;;;;;;11.68;8.93;;;;;;;21.67;60.23;100221.50;5043828;28;20041;-69
2022/07/03 01:57:48;;;;;;;11.20;8.52;;;;;;;21.59;60.22;100216.84;5043786;28;20151;-69
2022/07/03 02:00:18;;;;;;;21.05;9.10;;;;;;;21.49;60.33;100195.47;5049964;28;20453;-71
2022/07/03 02:03:02;;;;;;;14.25;9.40;;;;;;;21.46;60.10;100207.53;5036713;28;20311;-69
2022/07/03 02:05:38;;;;;;;16.60;10.38;;;;;;;21.45;60.14;100205.09;5042572;28;20052;-70
2022/07/03 02:08:38;;;;;;;15.02;10.25;;;;;;;21.42;60.18;100212.31;5035543;28;20069;-69
2022/07/03 02:11:16;;;;;;;18.20;11.05;;;;;;;21.43;60.42;100230.16;5041836;28;20077;-69
2022/07/03 02:14:01;;;;;;;11.60;9.93;;;;;;;21.43;60.41;100219.63;5041878;28;20044;-71
2022/07/03 02:16:30;;;;;;;14.65;10.75;;;;;;;21.36;60.53;100213.75;5046533;28;20563;-71
2022/07/03 02:19:10;;;;;;;11.05;9.68;;;;;;;21.27;60.76;100201.72;5039530;28;20127;-74
2022/07/03 02:21:40;;;;;;;;;;;;;;;21.08;60.74;100218.56;5043808;28;20073;-74
2022/07/03 02:24:16;;;;;;;12.25;10.30;;;;;;;21.18;60.76;100213.19;5038500;28;20004;-73
2022/07/03 02:26:50;;;;;;;13.85;9.77;;;;;;;21.12;60.97;100205.28;5051409;28;20045;-73
2022/07/03 02:29:20;;;;;;;17.38;10.68;;;;;;;21.08;60.98;100205.19;5040269;28;20080;-73
2022/07/03 02:31:56;;;;;;;10.98;9.00;;;;;;;20.93;60.92;100195.44;5038965;28;20148;-73
2022/07/03 02:34:24;;;;;;;14.68;9.98;;;;;;;21.06;61.07;100214.09;5036771;28;20099;-73
2022/07/03 02:37:05;;;;;;;14.45;10.07;;;;;;;20.80;61.14;100173.94;5039416;28;20084;-73
2022/07/03 02:39:38;;;;;;;18.60;9.95;;;;;;;21.01;61.21;100210.66;5044286;28;20139;-72
2022/07/03 02:42:27;;;;;;;19.77;10.15;;;;;;;20.92;61.33;100198.63;5044601;28;20042;-69
2022/07/03 02:44:57;;;;;;;15.83;10.10;;;;;;;20.97;61.43;100212.56;5044809;28;20148;-69
2022/07/03 02:47:36;;;;;;;15.52;10.65;;;;;;;20.93;61.17;100214.47;5035524;28;20144;-69
2022/07/03 02:50:10;;;;;;;13.13;10.38;;;;;;;20.73;61.59;100182.25;5037157;28;20136;-69
2022/07/03 02:52:37;;;;;;;17.23;11.30;;;;;;;20.91;61.57;100216.84;5037816;28;20136;-70
2022/07/03 02:55:28;;;;;;;15.18;10.55;;;;;;;20.95;61.45;100204.41;5046492;28;20137;-69
2022/07/03 02:58:20;;;;;;;17.17;10.32;;;;;;;20.82;61.43;100177.25;5041845;28;20053;-69
2022/07/03 03:00:53;;;;;;;13.85;10.52;;;;;;;20.51;61.57;100118.31;5035031;28;20135;-71
2022/07/03 03:03:29;;;;;;;12.90;10.05;;;;;;;20.78;61.53;100159.28;5043405;28;20115;-70
2022/07/03 03:06:12;;;;;;;18.35;9.10;;;;;;;20.99;61.56;100194.00;5038696;28;20145;-71
2022/07/03 03:08:48;;;;;;;15.73;9.18;;;;;;;20.99;61.36;100185.47;5036876;28;20099;-70
2022/07/03 03:11:21;;;;;;;15.20;10.00;;;;;;;21.01;61.81;100193.63;5036664;28;20602;-70
2022/07/03 03:13:50;;;;;;;14.60;11.00;;;;;;;21.01;61.90;100185.13;5043671;28;20080;-70
2022/07/03 03:16:17;;;;;;;15.95;10.02;;;;;;;20.91;61.67;100172.25;5035458;28;20531;-71
2022/07/03 03:18:45;;;;;;;11.18;9.85;;;;;;;20.90;61.83;100155.59;5048325;28;20479;-71
2022/07/03 03:21:16;;;;;;;18.20;10.32;;;;;;;21.09;61.91;100191.81;5045911;28;20124;-70
2022/07/03 03:23:48;;;;;;;12.10;9.48;;;;;;;21.09;61.89;100204.00;5044168;28;20084;-70
2022/07/03 03:26:21;;;;;;;15.63;10.43;;;;;;;21.03;61.77;100194.94;5046303;28;20049;-71
2022/07/03 03:28:49;;;;;;;13.75;10.65;;;;;;;21.03;61.66;100189.25;5033668;28;20099;-70
2022/07/03 03:31:18;;;;;;;16.67;10.25;;;;;;;20.97;61.96;100176.50;5040522;28;20089;-70
2022/07/03 03:33:46;;;;;;;;;;;;;;;20.88;62.10;100180.66;5035690;28;20140;-71
2022/07/03 03:36:18;;;;;;;10.45;9.35;;;;;;;20.69;61.79;100133.06;5040225;28;20003;-71
2022/07/03 03:38:47;;;;;;;15.20;9.90;;;;;;;20.89;62.06;100171.78;5039666;28;20049;-71
2022/07/03 03:41:14;;;;;;;15.55;9.57;;;;;;;20.81;62.04;100170.72;5044145;28;20128;-70
2022/07/03 03:43:43;;;;;;;11.73;10.07;;;;;;;21.05;62.13;100201.06;5043457;28;20090;-71
2022/07/03 03:46:10;;;;;;;15.10;10.60;;;;;;;21.05;62.17;100198.22;5037200;28;20128;-72
2022/07/03 03:48:37;;;;;;;17.58;9.48;;;;;;;21.03;62.16;100200.59;5041888;28;20500;-72
2022/07/03 03:51:05;;;;;;;12.40;9.40;;;;;;;21.11;62.01;100212.16;5042445;28;20072;-72
2022/07/03 03:53:32;;;;;;;18.13;10.23;;;;;;;21.00;62.22;100198.47;5040950;28;20056;-71
2022/07/03 03:56:04;;;;;;;15.27;9.80;;;;;;;21.11;62.21;100197.97;5039542;28;20049;-71
2022/07/03 03:58:33;;;;;;;13.25;9.45;;;;;;;20.94;62.33;100180.03;5043109;28;20106;-71
2022/07/03 04:01:02;;;;;;;12.80;9.75;;;;;;;21.09;62.21;100209.69;5041410;28;20103;-72
2022/07/03 04:03:30;;;;;;;13.18;10.43;;;;;;;20.83;62.19;100167.56;5047948;28;20132;-72
2022/07/03 04:05:57;;;;;;;14.40;10.30;;;;;;;21.10;62.20;100216.22;5051471;28;20135;-70
2022/07/03 04:08:25;;;;;;;14.02;10.20;;;;;;;21.10;62.43;100217.03;5041015;28;20136;-69
2022/07/03 04:10:52;;;;;;;12.65;10.27;;;;;;;21.09;62.46;100221.03;5034095;28;20232;-69
2022/07/03 04:13:19;;;;;;;14.82;10.88;;;;;;;21.03;62.52;100206.28;5039503;28;20476;-69
2022/07/03 04:15:48;;;;;;;14.82;10.73;;;;;;;20.95;62.50;100198.72;5034343;28;20140;-69
2022/07/03 04:18:15;;;;;;;14.50;10.82;;;;;;;21.09;62.79;100235.22;5039769;28;20153;-71
2022/07/03 04:20:42;;;;;;;12.70;9.90;;;;;;;21.09;62.67;100234.41;5037747;28;20052;-71
2022/07/03 04:23:09;;;;;;;13.48;10.45;;;;;;;21.11;62.54;100249.91;5040953;28;20085;-71
2022/07/03 04:25:36;;;;;;;15.50;10.55;;;;;;;21.14;62.76;100239.84;5049149;28;20076;-69
2022/07/03 04:28:03;;;;;;;14.35;10.63;;;;;;;20.91;62.51;100194.94;5041217;28;20072;-70
2022/07/03 04:30:47;;;;;;;14.00;10.57;;;;;;;21.04;62.34;100202.25;5040175;28;20057;-71
2022/07/03 04:33:15;;;;;;;13.40;10.35;;;;;;;21.18;62.13;100221.72;5031918;28;20049;-71
2022/07/03 04:35:42;;;;;;;15.73;13.00;;;;;;;21.13;62.04;100210.63;5036045;28;20114;-72
2022/07/03 04:38:09;;;;;;;14.52;9.15;;;;;;;21.22;62.22;100241.69;5039560;28;20049;-72
2022/07/03 04:40:36;;;;;;;10.75;9.68;;;;;;;21.11;62.12;100229.22;5039023;28;20468;-72
2022/07/03 04:43:02;;;;;;;11.32;9.60;;;;;;;21.02;62.08;100196.09;5037250;28;20072;-74
2022/07/03 04:45:29;;;;;;;11.68;10.23;;;;;;;21.27;61.67;100215.91;5046429;28;20141;-74
2022/07/03 04:47:56;;;;;;;14.20;9.98;;;;;;;21.04;61.67;100196.56;5034615;28;20080;-74
2022/07/03 04:50:23;;;;;;;13.15;9.18;;;;;;;21.19;61.66;100223.38;5039959;28;20494;-74
2022/07/03 04:52:50;;;;;;;11.52;9.30;;;;;;;21.06;61.67;100214.09;5043617;28;20160;-74
2022/07/03 04:55:17;;;;;;;13.25;9.27;;;;;;;21.20;61.44;100250.59;5034517;28;20084;-72
2022/07/03 04:57:44;;;;;;;15.27;9.48;;;;;;;21.09;61.76;100246.59;5040281;28;20053;-71
2022/07/03 05:00:11;;;;;;;11.50;9.23;;;;;;;20.97;61.88;100206.91;5035540;28;20072;-72
2022/07/03 05:02:38;;;;;;;13.98;9.80;;;;;;;21.18;61.58;100232.25;5040352;28;20132;-71
2022/07/03 05:05:05;;;;;;;9.93;8.98;;;;;;;21.28;61.41;100235.41;5047498;28;20056;-70
2022/07/03 05:07:32;;;;;;;14.38;9.30;;;;;;;21.27;61.57;100238.63;5043233;28;20076;-69
2022/07/03 05:09:59;;;;;;;9.45;8.45;;;;;;;21.22;61.61;100231.16;5047734;28;20135;-69
2022/07/03 05:12:26;;;;;;;11.40;8.73;;;;;;;21.17;61.22;100219.25;5043883;28;20569;-71
2022/07/03 05:14:53;;;;;;;13.95;9.50;;;;;;;21.25;61.26;100233.28;5041027;28;20088;-71
2022/07/03 05:17:20;;;;;;;12.35;10.18;;;;;;;21.41;61.43;100258.94;5039343;28;20212;-72
2022/07/03 05:19:47;;;;;;;9.60;8.07;;;;;;;21.24;61.29;100227.97;5048075;28;20071;-72
2022/07/03 05:22:17;;;;;;;9.45;8.52;;;;;;;21.35;61.16;100251.88;5056037;28;20064;-75
2022/07/03 05:24:43;;;;;;;17.88;8.25;;;;;;;21.31;61.32;100248.06;5059189;28;20053;-73
2022/07/03 05:27:10;;;;;;;15.77;12.10;;;;;;;21.24;61.29;100240.16;5040099;28;20077;-72
2022/07/03 05:29:37;;;;;;;45.25;42.17;;;;;;;21.00;61.39;100231.72;5056130;28;20057;-69
2022/07/03 05:32:05;;;;;;;46.90;44.00;;;;;;;20.88;62.43;100271.47;5042289;28;20050;-70
2022/07/03 05:34:32;;;;;;;44.72;41.38;;;;;;;20.52;64.14;100265.50;5039311;28;20053;-71
2022/07/03 05:36:59;;;;;;;43.65;40.10;;;;;;;20.38;64.47;100256.47;5037200;28;20527;-70
2022/07/03 05:39:31;;;;;;;38.22;35.50;;;;;;;20.28;65.57;100288.13;5040944;28;20096;-70
2022/07/03 05:41:58;;;;;;;27.98;26.05;;;;;;;20.03;66.68;100284.41;5038142;28;20049;-71
2022/07/03 05:44:25;;;;;;;26.42;24.52;;;;;;;19.92;67.37;100275.53;5035060;28;20128;-70
2022/07/03 05:46:52;;;;;;;24.00;21.98;;;;;;;19.86;67.99;100272.13;5034918;28;20129;-70
2022/07/03 05:49:19;;;;;;;22.65;21.00;;;;;;;19.92;68.67;100271.88;5033150;28;20138;-70
2022/07/03 05:51:46;;;;;;;21.63;19.67;;;;;;;20.00;68.47;100254.78;5040474;28;20091;-71
2022/07/03 05:54:13;;;;;;;20.23;18.33;;;;;;;20.05;68.23;100256.56;5042046;28;20099;-71
2022/07/03 05:56:40;;;;;;;18.23;16.63;;;;;;;19.95;68.13;100249.31;5034529;28;20088;-71
2022/07/03 05:59:07;;;;;;;23.00;19.05;;;;;;;19.95;67.89;100218.16;5037522;28;20132;-71
2022/07/03 06:01:33;;;;;;;20.52;18.75;;;;;;;20.38;68.04;100276.31;5037116;28;20128;-71
2022/07/03 06:04:00;;;;;;;18.58;16.90;;;;;;;20.39;67.90;100249.63;5047053;28;20491;-71
2022/07/03 06:06:27;;;;;;;21.00;17.27;;;;;;;20.79;67.81;100271.63;5024033;28;20499;-71
2022/07/03 06:08:54;;;;;;;17.02;14.10;;;;;;;21.03;67.22;100257.38;5033222;28;20130;-70
2022/07/03 06:11:21;;;;;;;15.27;13.73;;;;;;;21.10;67.15;100251.09;5033363;28;20079;-72
2022/07/03 06:13:48;;;;;;;16.58;13.82;;;;;;;21.02;67.00;100238.69;5034023;28;20060;-71
2022/07/03 06:16:15;;;;;;;17.00;14.23;;;;;;;21.03;67.15;100248.88;5035201;28;20132;-70
2022/07/03 06:18:42;;;;;;;16.88;15.27;;;;;;;20.91;67.31;100248.88;5044224;28;20423;-71
2022/07/03 06:21:09;;;;;;;21.17;15.32;;;;;;;21.03;67.35;100265.91;5049924;28;20140;-69
2022/07/03 06:23:35;;;;;;;26.50;18.88;;;;;;;21.14;67.23;100273.91;5033371;28;20580;-71
2022/07/03 06:26:16;;;;;;;25.67;19.85;;;;;;;21.14;67.11;100239.84;5033648;28;20531;-71
2022/07/03 06:28:43;;;;;;;18.80;16.02;;;;;;;21.10;67.35;100247.44;5039342;28;20139;-70
2022/07/03 06:31:10;;;;;;;18.67;14.75;;;;;;;21.15;66.88;100259.34;5048901;28;20571;-71
2022/07/03 06:33:37;;;;;;;18.52;15.75;;;;;;;21.05;67.28;100259.84;5038914;28;20105;-71
2022/07/03 06:36:04;;;;;;;21.95;16.35;;;;;;;21.10;67.45;100295.72;5037223;28;20045;-70
2022/07/03 06:38:31;;;;;;;17.80;16.00;;;;;;;20.88;67.93;100289.34;5038440;28;20077;-70
2022/07/03 06:40:58;;;;;;;18.13;16.17;;;;;;;20.70;68.11;100290.78;5052035;28;20136;-70
2022/07/03 06:43:25;;;;;;;22.05;16.60;;;;;;;20.92;68.05;100341.38;5044265;28;20544;-70
2022/07/03 06:45:51;;;;;;;21.35;17.30;;;;;;;20.57;68.11;100279.41;5032542;28;20080;-70
2022/07/03 06:48:18;;;;;;;18.90;16.33;;;;;;;20.57;68.33;100284.28;5034360;28;20533;-69
2022/07/03 06:50:46;;;;;;;18.30;16.70;;;;;;;20.87;68.52;100338.78;5037727;28;20140;-71
2022/07/03 06:53:13;;;;;;;18.42;16.80;;;;;;;20.86;68.41;100339.16;5037536;28;20131;-70
2022/07/03 06:55:40;;;;;;;23.30;16.35;;;;;;;20.95;68.57;100326.47;5049672;28;20477;-70
2022/07/03 06:58:07;;;;;;;19.65;17.55;;;;;;;21.01;68.79;100308.00;5037527;28;20654;-70
2022/07/03 07:00:36;;;;;;;18.33;16.42;;;;;;;21.17;68.42;100290.25;5032747;28;20496;-70
2022/07/03 07:03:02;;;;;;;19.77;17.13;;;;;;;21.15;68.50;100295.44;5032374;28;20111;-69
2022/07/03 07:05:29;;;;;;;17.77;16.08;;;;;;;21.14;68.57;100305.16;5032984;28;20085;-71
2022/07/03 07:07:56;;;;;;;23.15;21.00;;;;;;;21.10;68.52;100287.19;5034358;28;20084;-71
2022/07/03 07:10:23;;;;;;;21.08;17.40;;;;;;;21.15;68.75;100293.41;5037514;28;20072;-70
2022/07/03 07:12:50;;;;;;;18.90;16.48;;;;;;;21.05;69.00;100300.41;5052774;28;20135;-71
2022/07/03 07:15:17;;;;;;;19.25;15.23;;;;;;;20.87;69.17;100282.00;5043971;28;20084;-69
2022/07/03 07:17:44;;;;;;;15.90;14.40;;;;;;;20.75;69.59;100277.19;5032463;28;20084;-70
2022/07/03 07:20:11;;;;;;;15.82;13.80;;;;;;;20.95;69.51;100295.22;5037060;28;20148;-70
2022/07/03 07:22:38;;;;;;;22.73;17.52;;;;;;;21.08;69.09;100303.75;5052560;28;20135;-69
2022/07/03 07:25:05;;;;;;;15.45;13.57;;;;;;;21.23;69.28;100325.69;5040856;28;20072;-69
2022/07/03 07:27:32;;;;;;;20.52;14.95;;;;;;;21.35;69.22;100341.94;5032162;28;20060;-70
2022/07/03 07:29:58;;;;;;;17.15;12.95;;;;;;;21.38;69.19;100342.03;5032607;28;20140;-70
2022/07/03 07:32:25;;;;;;;17.40;12.90;;;;;;;21.44;69.23;100348.31;5032445;28;20574;-70
2022/07/03 07:34:52;;;;;;;15.82;12.52;;;;;;;21.48;69.03;100335.88;5032747;28;20414;-68
2022/07/03 07:37:19;;;;;;;12.23;11.00;;;;;;;21.53;69.18;100348.97;5032353;28;20140;-68
2022/07/03 07:39:46;;;;;;;22.85;11.93;;;;;;;21.62;69.02;100385.78;5040366;28;20075;-69
2022/07/03 07:42:13;;;;;;;13.95;12.38;;;;;;;21.77;69.20;100388.69;5037848;28;20492;-70
2022/07/03 07:44:40;;;;;;;10.98;9.88;;;;;;;21.69;68.92;100394.53;5032394;28;20103;-70
2022/07/03 07:47:07;;;;;;;18.55;12.98;;;;;;;21.68;68.62;100409.94;5031073;28;20095;-69
2022/07/03 07:49:34;;;;;;;13.50;10.48;;;;;;;21.69;68.66;100415.25;5033593;28;20072;-70
2022/07/03 07:52:00;;;;;;;12.30;9.80;;;;;;;21.61;68.69;100440.97;5034476;28;20053;-71
2022/07/03 07:54:29;;;;;;;14.68;10.52;;;;;;;21.43;68.70;100412.81;5047845;28;20136;-71
2022/07/03 07:56:56;;;;;;;14.38;9.55;;;;;;;21.46;68.51;100440.50;5031492;28;20081;-71
2022/07/03 07:59:23;;;;;;;15.45;9.75;;;;;;;21.49;68.00;100427.59;5046145;28;20059;-71
2022/07/03 08:07:20;;;;;;;9.80;8.85;;;;;;;21.86;67.80;100459.63;5047180;28;20081;-71
2022/07/03 08:09:47;;;;;;;13.93;9.25;;;;;;;21.80;67.49;100468.75;5038441;28;20143;-71
2022/07/03 08:12:14;;;;;;;10.18;9.18;;;;;;;21.73;67.82;100483.56;5033413;28;20469;-70
2022/07/03 08:14:41;;;;;;;9.57;8.80;;;;;;;21.75;68.07;100492.56;5038182;28;20124;-70
2022/07/03 08:17:07;;;;;;;16.00;9.10;;;;;;;21.88;67.46;100502.75;5030802;28;20137;-69
2022/07/03 08:19:34;;;;;;;12.13;9.77;;;;;;;21.92;67.25;100515.03;5031482;28;20140;-71
2022/07/03 08:22:01;;;;;;;19.73;10.18;;;;;;;21.84;67.14;100521.69;5048750;28;20045;-71
2022/07/03 08:24:28;;;;;;;17.23;10.10;;;;;;;21.67;67.46;100502.03;5032834;28;20111;-72
2022/07/03 08:26:55;;;;;;;13.20;9.93;;;;;;;21.75;67.01;100521.00;5035472;28;20469;-72
2022/07/03 08:29:22;;;;;;;11.48;9.77;;;;;;;21.76;67.27;100494.22;5030884;28;20080;-72
2022/07/03 08:31:49;;;;;;;16.85;10.05;;;;;;;21.79;67.05;100521.94;5038291;28;20127;-72
2022/07/03 08:34:16;;;;;;;15.13;13.40;;;;;;;21.64;67.50;100509.28;5031730;28;20053;-71
2022/07/03 08:36:43;;;;;;;14.93;11.40;;;;;;;21.58;67.40;100510.72;5038067;28;20063;-72
2022/07/03 08:39:10;;;;;;;21.25;12.55;;;;;;;21.47;67.59;100510.38;5042830;28;20132;-71
2022/07/03 08:41:40;;;;;;;17.95;13.57;;;;;;;21.55;67.51;100516.28;5034037;28;20136;-73
2022/07/03 08:44:12;;;;;;;17.52;12.27;;;;;;;21.45;67.65;100498.50;5037771;28;20081;-71
2022/07/03 08:46:40;;;;;;;20.85;13.52;;;;;;;21.47;67.68;100509.50;5050790;28;20056;-72
2022/07/03 08:49:08;;;;;;;25.77;13.18;;;;;;;21.33;68.14;100500.50;5047075;28;20599;-69
2022/07/03 08:51:35;;;;;;;18.90;11.65;;;;;;;21.43;67.80;100515.06;5041166;28;21688;-71
2022/07/03 08:54:05;;;;;;;21.98;13.60;;;;;;;21.38;67.86;100486.91;5039170;28;20128;-71
2022/07/03 08:56:32;;;;;;;21.05;13.20;;;;;;;21.38;68.11;100467.03;5038651;28;20472;-70
2022/07/03 08:59:02;;;;;;;20.23;12.60;;;;;;;21.53;68.17;100462.63;5050226;28;20053;-71
2022/07/03 09:01:30;;;;;;;18.15;13.55;;;;;;;21.55;68.02;100448.09;5045271;28;20460;-71
2022/07/03 09:03:58;;;;;;;21.33;14.38;;;;;;;21.53;67.88;100449.25;5031391;28;20441;-71
2022/07/03 09:06:25;;;;;;;21.08;14.40;;;;;;;21.44;68.04;100471.31;5034648;28;20085;-72
2022/07/03 09:08:55;;;;;;;17.58;11.90;;;;;;;21.04;68.58;100446.41;5029946;28;20092;-70
2022/07/03 09:11:22;;;;;;;;;;;;;;;21.14;69.12;100513.25;5031977;28;20479;-71
2022/07/03 09:13:49;;;;;;;15.60;11.68;;;;;;;21.15;68.64;100497.88;5030933;28;20021;-72
2022/07/03 09:16:20;;;;;;;15.82;12.82;;;;;;;21.28;68.40;100478.84;5030974;28;20053;-71
2022/07/03 09:18:47;;;;;;;20.77;12.90;;;;;;;21.36;68.47;100491.28;5042416;28;20415;-71
2022/07/03 09:21:16;;;;;;;14.50;11.45;;;;;;;21.37;68.89;100484.41;5042778;28;20049;-71
2022/07/03 09:23:44;;;;;;;17.25;12.68;;;;;;;21.29;69.24;100514.56;5050590;28;20091;-71
2022/07/03 09:26:16;;;;;;;20.02;14.23;;;;;;;21.20;69.22;100483.47;5050911;28;20099;-71
2022/07/03 09:28:48;;;;;;;17.52;12.07;;;;;;;21.45;69.03;100470.09;5048646;28;20087;-70
2022/07/03 09:31:16;;;;;;;23.67;15.45;;;;;;;21.59;68.78;100454.69;5036805;28;20045;-71
2022/07/03 09:34:04;;;;;;;23.27;15.95;;;;;;;21.71;68.28;100434.78;5050911;28;20053;-71
2022/07/03 09:36:43;;;;;;;17.85;13.98;;;;;;;21.89;68.41;100430.47;5032132;28;20084;-71
2022/07/03 09:39:19;;;;;;;15.50;12.05;;;;;;;21.95;67.99;100463.16;5045625;28;20119;-70
2022/07/03 09:41:56;;;;;;;11.68;10.65;;;;;;;21.56;68.73;100459.06;5034787;28;20081;-71
2022/07/03 09:44:35;;;;;;;12.38;11.48;;;;;;;21.51;69.31;100477.22;5052756;28;20064;-71
2022/07/03 09:47:20;;;;;;;12.82;11.65;;;;;;;21.39;69.39;100445.97;5034872;28;20131;-71
2022/07/03 09:49:58;;;;;;;17.02;15.32;;;;;;;21.28;69.83;100419.19;5034176;28;20092;-71
2022/07/03 09:52:36;;;;;;;21.35;11.27;;;;;;;21.20;69.96;100392.59;5033324;28;20148;-71
2022/07/03 09:55:09;;;;;;;16.25;11.98;;;;;;;21.46;69.78;100423.44;5043519;28;20060;-72
2022/07/03 09:57:37;;;;;;;17.38;11.23;;;;;;;21.55;69.17;100414.00;5037657;28;20049;-71
2022/07/03 10:00:25;;;;;;;16.63;11.63;;;;;;;21.80;69.34;100435.47;5043388;28;20088;-71
2022/07/03 10:03:00;;;;;;;12.45;11.25;;;;;;;21.86;68.69;100393.41;5047799;28;20061;-71
2022/07/03 10:05:41;;;;;;;15.25;10.63;;;;;;;21.84;68.63;100331.22;5034108;28;20099;-72
2022/07/03 10:08:11;;;;;;;14.07;11.77;;;;;;;21.98;67.80;100291.00;5043095;28;20471;-71
2022/07/03 10:10:42;;;;;;;14.23;12.52;;;;;;;22.54;67.87;100335.59;5034020;28;20053;-72
2022/07/03 10:13:10;;;;;;;14.07;12.80;;;;;;;22.66;67.68;100312.72;5034039;28;20077;-71
2022/07/03 10:15:38;;;;;;;13.57;12.20;;;;;;;23.23;66.75;100354.00;5037722;28;20089;-72
2022/07/03 10:18:10;;;;;;;13.48;12.35;;;;;;;23.48;66.75;100346.00;5034216;28;20053;-72
2022/07/03 10:20:44;;;;;;;14.77;11.10;;;;;;;23.66;66.91;100346.44;5036519;28;20117;-72
2022/07/03 10:23:11;;;;;;;15.93;14.43;;;;;;;23.84;66.31;100326.88;5042369;28;20060;-71
2022/07/03 10:25:43;;;;;;;15.15;13.68;;;;;;;24.03;65.88;100326.00;5037637;28;20081;-71
2022/07/03 10:28:14;;;;;;;15.45;14.23;;;;;;;24.22;66.05;100328.84;5040644;28;20076;-70
2022/07/03 10:30:46;;;;;;;15.20;13.43;;;;;;;24.44;65.78;100335.78;5037500;28;20111;-71
2022/07/03 10:33:13;;;;;;;25.30;17.70;;;;;;;24.77;65.20;100340.84;5050238;28;20084;-71
2022/07/03 10:35:43;;;;;;;17.42;11.70;;;;;;;24.90;64.76;100341.47;5048650;28;20568;-71
2022/07/03 10:38:37;;;;;;;12.05;10.82;;;;;;;25.12;65.01;100336.94;5039017;28;20081;-71
2022/07/03 10:46:48;;;;;;;11.25;10.07;;;;;;;25.82;63.58;100389.03;5033601;28;20473;-71
2022/07/03 10:49:19;;;;;;;11.18;10.05;;;;;;;25.98;63.37;100398.22;5035808;28;20053;-72
2022/07/03 10:51:56;;;;;;;11.65;9.88;;;;;;;26.36;63.04;100396.22;5032376;28;20132;-71
2022/07/03 10:54:36;;;;;;;11.00;10.02;;;;;;;26.84;62.64;100390.63;5046098;28;20149;-71
2022/07/03 10:57:03;;;;;;;11.48;9.93;;;;;;;27.35;61.21;100404.13;5031876;28;20105;-70
2022/07/03 10:59:36;;;;;;;11.82;10.82;;;;;;;27.40;60.21;100398.84;5032209;28;20076;-70
2022/07/03 11:02:23;;;;;;;10.98;9.98;;;;;;;27.34;58.35;100391.03;5032039;28;20103;-70
2022/07/03 11:04:56;;;;;;;13.57;9.95;;;;;;;27.48;58.02;100402.59;5039566;28;20120;-71
2022/07/03 11:07:29;;;;;;;12.43;10.75;;;;;;;27.77;57.48;100411.41;5032315;28;20046;-72
2022/07/03 11:10:14;;;;;;;12.65;9.63;;;;;;;27.74;57.02;100409.31;5031797;28;20099;-71
2022/07/03 11:12:56;;;;;;;11.18;10.30;;;;;;;27.86;56.74;100418.44;5035891;28;20087;-70
2022/07/03 11:15:37;;;;;;;10.55;9.55;;;;;;;28.22;56.58;100427.19;5039444;28;20046;-71
2022/07/03 11:18:07;;;;;;;12.38;10.05;;;;;;;28.54;55.56;100441.69;5036370;28;20099;-72
2022/07/03 11:20:44;;;;;;;10.77;9.68;;;;;;;28.62;54.89;100448.31;5035783;28;20057;-72
2022/07/03 11:23:19;;;;;;;16.08;11.52;;;;;;;28.91;54.83;100463.53;5042454;28;20077;-72
2022/07/03 11:25:48;;;;;;;9.93;8.98;;;;;;;28.95;53.89;100424.09;5033030;28;20049;-73
2022/07/03 11:28:33;;;;;;;12.88;9.82;;;;;;;29.43;53.56;100446.72;5035882;28;20144;-72
2022/07/03 11:33:47;;;;;;;10.40;9.55;;;;;;;29.66;52.22;100426.19;5037231;28;20095;-73
2022/07/03 11:36:16;;;;;;;10.18;9.27;;;;;;;30.16;51.42;100448.25;5051258;28;20103;-73
2022/07/03 11:38:48;;;;;;;12.80;9.32;;;;;;;30.28;51.26;100439.16;5042050;28;20088;-73
2022/07/03 11:41:16;;;;;;;10.13;9.18;;;;;;;29.90;51.67;100440.94;5039256;28;20057;-73
2022/07/03 11:43:51;;;;;;;9.68;8.55;;;;;;;29.64;52.48;100439.34;5031246;28;20081;-73
2022/07/03 11:46:19;;;;;;;12.90;10.93;;;;;;;29.62;51.80;100427.44;5032123;28;20049;-71